Augusta, GA

7:16 AM EDT on May 29, 2015 (GMT -0400)
Lake Olmstead | | Change Station
CLOSE
Current Station
Personal Weather Station
Location: Augusta, GA
Elevation: 213 ft
Nearby Weather Stations

Elev 213 ft 33.50 °N, 82.00 °W | Updated 4 minutes ago

Clear
Clear
66.6 °F
Feels Like 66.6 °F
N
0.0
Wind Variable Wind from NW

Today
High -- | Low -- °F
--% Chance of Precip.
Yesterday
High -- | Low -- °F
Precip. -- in
6:20 AM 8:30 PM
Waxing Gibbous, 83% visible
Pressure 30.19 in
Visibility 10.0 miles
Clouds Clear
Dew Point 65 °F
Humidity 96%
Rainfall 0.00 in
Snow Depth Not available.
UV 0 out of 12
Pollen 5.50 out of 12
Air Quality Not available.
Flu Activity Sporadic
METAR KDNL 291053Z AUTO 11003KT 10SM CLR 21/17 A3020 RMK AO2 SLP221 T02060167

More Conditions Fewer Conditions

Pressure 30.19 in
Visibility 10.0 miles
Clouds Clear
Dew Point 65 °F
Humidity 96%
Rainfall 0.00 in
Snow Depth Not available.
UV 0 out of 12
Pollen 5.50 out of 12
Air Quality Not available.
Flu Activity Sporadic
METAR KDNL 291053Z AUTO 11003KT 10SM CLR 21/17 A3020 RMK AO2 SLP221 T02060167

More Conditions Fewer Conditions

10-Day Weather Forecast

Almanac

Astronomy

May. 29, 2015 Rise Set
Actual Time
Civil Twilight
Nautical Twilight
Astronomical Twilight
Moon
Length of Visible Light
Length of Day
Tomorrow will be .
, % of the Moon is Illuminated

Today's Extremes

State Highs State Lows

Community

WunderPhotos

Upload Photos

1,825,241 photos uploaded!

WunderBlogs® & News

Nearby

Air Quality

  Air Quality AQ Index Pollutant
Not available.

Snow Depth

Station Depth Elevation

Earthquake Activity

City Distance Mag. Time & Date
Minimum magnitude displayed is 2.5.

Coastal Water Temperatures

Place Temperature

Stations

Nearby Weather Stations

Station Location Temp. Windchill Dew Point Humidity Wind Precip. Elev Updated Type